createdAt,value
2019-04-28T00:07:56.850Z,41.00
2019-04-28T00:18:04.150Z,44.03
2019-04-28T00:28:11.504Z,40.37
2019-04-28T00:38:17.338Z,39.23
2019-04-28T00:48:30.822Z,43.17
2019-04-28T00:58:41.682Z,36.87
2019-04-28T01:08:51.501Z,37.83
2019-04-28T01:19:07.745Z,37.17
2019-04-28T01:29:22.468Z,37.70
2019-04-28T01:39:30.491Z,35.60
2019-04-28T01:49:40.421Z,39.70
2019-04-28T01:59:49.975Z,34.70
2019-04-28T02:09:55.781Z,38.03
2019-04-28T02:20:02.783Z,35.37
2019-04-28T02:30:11.412Z,35.17
2019-04-28T02:40:17.212Z,35.13
2019-04-28T02:50:24.461Z,39.93
2019-04-28T03:01:01.304Z,39.50
2019-04-28T03:10:53.610Z,36.13
2019-04-28T03:21:03.557Z,36.50
2019-04-28T03:31:40.569Z,36.90
2019-04-28T03:41:15.530Z,32.43
2019-04-28T03:51:21.402Z,32.70
2019-04-28T04:01:27.251Z,37.47
2019-04-28T04:11:41.083Z,40.10
2019-04-28T04:21:47.136Z,37.43
2019-04-28T04:32:09.487Z,48.13
2019-04-28T04:42:00.640Z,44.90
2019-04-28T04:52:06.498Z,40.63
2019-04-28T05:02:32.219Z,33.23
2019-04-28T05:12:37.011Z,41.97
2019-04-28T05:22:44.178Z,37.73
2019-04-28T05:32:56.047Z,42.57
2019-04-28T05:43:00.863Z,55.43
2019-04-28T05:53:08.495Z,27.73
2019-04-28T06:03:15.753Z,29.47
2019-04-28T06:13:21.501Z,39.50
2019-04-28T06:23:27.299Z,29.43
2019-04-28T06:33:32.842Z,18.00
2019-04-28T06:43:38.497Z,21.47
2019-04-28T06:53:44.308Z,18.27
2019-04-28T07:03:50.979Z,20.07
2019-04-28T07:13:56.638Z,15.47
2019-04-28T07:24:02.499Z,16.63
2019-04-28T07:34:08.250Z,15.20
2019-04-28T07:44:13.813Z,19.27
2019-04-28T07:54:21.162Z,14.83
2019-04-28T08:04:26.797Z,13.60
2019-04-28T08:14:32.339Z,18.17
2019-04-28T08:24:39.096Z,20.27
2019-04-28T08:34:44.718Z,21.77
2019-04-28T08:44:50.291Z,27.23
2019-04-28T08:54:55.876Z,24.47
2019-04-28T09:05:01.514Z,24.50
2019-04-28T09:15:08.484Z,30.97
2019-04-28T09:25:14.064Z,25.73
2019-04-28T09:35:19.726Z,22.67
2019-04-28T09:45:26.976Z,18.50
2019-04-28T09:55:32.611Z,29.97
2019-04-28T10:05:38.272Z,28.87
2019-04-28T10:15:43.890Z,23.97
2019-04-28T10:25:49.535Z,21.73
2019-04-28T10:35:55.291Z,23.73
2019-04-28T10:46:01.022Z,15.90
2019-04-28T10:56:06.891Z,17.33
2019-04-28T11:06:12.774Z,16.63
2019-04-28T11:16:19.960Z,12.13
2019-04-28T11:26:25.668Z,11.27
2019-04-28T11:36:35.248Z,14.33
2019-04-28T11:46:47.599Z,16.67
2019-04-28T11:57:00.980Z,21.30
2019-04-28T12:07:28.311Z,11.70
2019-04-28T12:17:39.786Z,17.60
2019-04-28T12:27:45.384Z,18.00
2019-04-28T12:37:51.064Z,17.83
2019-04-28T12:47:56.698Z,23.20
2019-04-28T12:58:03.909Z,22.33
2019-04-28T13:08:09.579Z,16.90
2019-04-28T13:18:15.220Z,32.53
2019-04-28T13:28:20.986Z,32.00
2019-04-28T13:38:26.736Z,21.37
2019-04-28T13:48:32.649Z,26.37
2019-04-28T13:58:39.404Z,26.27
2019-04-28T14:08:45.153Z,17.00
2019-04-28T14:18:50.776Z,21.53
2019-04-28T14:28:56.402Z,16.20
2019-04-28T14:39:02.047Z,15.60
2019-04-28T14:49:09.301Z,17.63
2019-04-28T14:59:16.202Z,17.03
2019-04-28T15:09:23.483Z,18.40
2019-04-28T15:19:29.045Z,22.90
2019-04-28T15:29:36.248Z,30.33
2019-04-28T15:39:42.424Z,35.05
2019-04-28T15:49:48.089Z,34.67
2019-04-28T15:59:53.756Z,35.27
2019-04-28T16:10:01.212Z,30.03
2019-04-28T16:20:13.829Z,28.67
2019-04-28T16:30:24.692Z,40.27
2019-04-28T16:40:30.403Z,37.80
2019-04-28T16:50:36.116Z,31.60
2019-04-28T17:00:43.557Z,43.33
2019-04-28T17:10:49.721Z,42.13
2019-04-28T17:20:57.182Z,37.43
2019-04-28T17:31:03.102Z,39.27
2019-04-28T17:41:08.934Z,47.27
2019-04-28T17:51:16.077Z,48.90
2019-04-28T18:01:38.982Z,66.70
2019-04-28T18:11:49.657Z,66.97
2019-04-28T18:21:56.757Z,67.23
2019-04-28T18:32:20.159Z,52.50
2019-04-28T18:42:27.507Z,51.10
2019-04-28T18:52:37.316Z,50.40
2019-04-28T19:02:47.854Z,50.70
2019-04-28T19:12:55.259Z,38.63
2019-04-28T19:23:01.279Z,36.67
2019-04-28T19:33:07.213Z,47.80
2019-04-28T19:43:13.157Z,44.60
2019-04-28T19:53:18.990Z,46.23
2019-04-28T20:03:24.849Z,39.37
2019-04-28T20:13:32.437Z,42.27
2019-04-28T20:23:38.196Z,33.50
2019-04-28T20:33:44.208Z,37.77
2019-04-28T20:43:49.828Z,33.60
2019-04-28T20:53:55.384Z,37.50
2019-04-28T21:04:00.975Z,35.33
2019-04-28T21:14:06.544Z,41.23
2019-04-28T21:24:12.186Z,33.33
2019-04-28T21:34:23.840Z,32.87
2019-04-28T21:44:31.038Z,30.97
2019-04-28T21:54:36.596Z,28.77
2019-04-28T22:04:42.453Z,35.20
2019-04-28T22:14:48.203Z,39.43
2019-04-28T22:24:55.397Z,38.33
2019-04-28T22:35:01.083Z,27.03
2019-04-28T22:45:09.517Z,27.07
2019-04-28T22:55:16.839Z,28.60
2019-04-28T23:05:22.590Z,23.27
2019-04-28T23:15:28.239Z,20.60
2019-04-28T23:25:33.851Z,21.63
2019-04-28T23:35:40.500Z,22.17
2019-04-28T23:45:46.038Z,23.17
2019-04-28T23:55:51.796Z,23.17
